Hauptseite
METAR-TAF:

METAR-TAF

Flughäfen :

Daressalam, Tansania

Flughafen Dar es Salaam

Breite: 06-52S, Länge: 039-12E, Höhe: 55 m

Beobachtung

Neuester Wetterbericht von vor 51 Minuten, um 15:00 UTC
Wind 10 kt aus Südost
Temperatur 26°C
Luftfeuchtigkeit 79%
Luftdruck 1016 hPa
Sichtweite 10 km oder mehr
Leicht bewölkt in der Höhe von 1800 ft
Durchbrochene Bewölkung in der Höhe von 8000 ft

METAR: HTDA 271500Z 13010KT 9999 FEW018 BKN080 26/22 Q1016 NOSIG

Zeit: 18:51 (15:51 UTC)

Prognose

Neuester Wetterbericht von vor 10 Stunden und 51 Minuten, um 05:00 UTC
Gültige Prognose vom 27 um 06 UTC bis 28 um 12 UTC
Wind 10 kt aus Süd
Sichtweite 10 km oder mehr
Aufgelockert bewölkt in der Höhe von 2200 ft
Übergehend zu
vom 27 um 18 UTC bis 27 um 21 UTC
Wind kt aus Nord

TAF: HTDA 270500Z 2706/2812 17010KT 9999 SCT022 BECMG 2718/2721 00000KT

Wetterbeobachtungen und Prognosen von mehr als 4000 Flughäfen (METAR und TAF Bericht).

Die verfügbaren Stationen werden durch gelbe und rote Markierungen auf der Karte dargestellt.

Führen Sie die Maus auf sie, um den Namen der Station zu sehen.

Darauf klicken, um die Beobachtung von Wetterbeobachtungen und Prognosen zu sehen.

Um die Karte zu ändern : klicken Sie auf den grünen Tasten mit einem schwarzen Kreuz Zum Vergrößern, auf den grünen Button mit einem Gedankenstrich zu verkleinern, oder auf die grünen Pfeile für benachbarte Karten.


METAR-TAF: